Time;durP1;ratioP1;P1;durP2;ratioP2;P2;SDS_P1;SDS_P2;PMS_P1;PMS_P2;Temp;Humidity;BMP_temperature;BMP_pressure;BME280_temperature;BME280_humidity;BME280_pressure;Samples;Min_cycle;Max_cycle;Signal;HPM_P1;HPM_P2
2023/09/06 00:00:43;;;;;;;7.63;2.60;;;;;;;;;;5030522;28;20081;-87
2023/09/06 00:03:14;;;;;;;4.75;2.75;;;;;;;;;;5027296;28;20053;-87
2023/09/06 00:05:44;;;;;;;3.40;2.67;;;;;;;;;;5032701;28;20242;-88
2023/09/06 00:08:25;;;;;;;4.00;2.78;;;;;;;;;;5030348;28;20046;-87
2023/09/06 00:11:06;;;;;;;5.60;2.40;;;;;;;;;;5025271;28;20057;-88
2023/09/06 00:13:57;;;;;;;6.50;3.47;;;;;;;;;;5028961;28;20049;-87
2023/09/06 00:16:30;;;;;;;6.93;2.53;;;;;;;;;;5026504;28;20101;-87
2023/09/06 00:19:14;;;;;;;1.20;1.10;;;;;;;;;;5025315;28;20082;-87
2023/09/06 00:21:48;;;;;;;0.10;0.10;;;;;;;;;;5027059;28;20065;-88
2023/09/06 00:24:35;;;;;;;0.10;0.10;;;;;;;;;;5040301;28;20030;-88
2023/09/06 00:27:19;;;;;;;0.10;0.10;;;;;;;;;;5036235;28;20091;-87
2023/09/06 00:29:50;;;;;;;0.10;0.10;;;;;;;;;;5027570;28;20136;-87
2023/09/06 00:32:27;;;;;;;0.10;0.10;;;;;;;;;;5027608;28;20080;-87
2023/09/06 00:34:55;;;;;;;0.10;0.10;;;;;;;;;;5028132;28;20339;-87
2023/09/06 00:37:44;;;;;;;0.10;0.10;;;;;;;;;;5039278;28;20072;-87
2023/09/06 00:40:18;;;;;;;0.10;0.10;;;;;;;;;;5047204;28;20049;-88
2023/09/06 00:42:49;;;;;;;0.40;0.38;;;;;;;;;;5046661;28;20061;-87
2023/09/06 00:45:25;;;;;;;5.60;2.10;;;;;;;;;;5030658;28;20406;-87
2023/09/06 00:48:07;;;;;;;0.10;0.10;;;;;;;;;;5029483;28;20084;-88
2023/09/06 00:50:36;;;;;;;1.33;1.00;;;;;;;;;;5030579;28;20109;-87
2023/09/06 00:53:06;;;;;;;4.82;2.42;;;;;;;;;;5032339;28;20057;-86
2023/09/06 00:55:58;;;;;;;6.18;2.67;;;;;;;;;;5034399;28;20403;-87
2023/09/06 00:58:32;;;;;;;6.20;2.72;;;;;;;;;;5029369;28;20049;-87
2023/09/06 01:01:11;;;;;;;6.45;3.05;;;;;;;;;;5031895;28;20054;-89
2023/09/06 01:03:40;;;;;;;5.68;3.53;;;;;;;;;;5047719;28;20109;-89
2023/09/06 01:06:21;;;;;;;5.93;2.92;;;;;;;;;;5046855;28;20228;-89
2023/09/06 01:08:55;;;;;;;6.90;2.72;;;;;;;;;;5029929;28;20144;-89
2023/09/06 01:11:37;;;;;;;4.03;3.20;;;;;;;;;;5033206;28;20073;-89
2023/09/06 01:14:08;;;;;;;4.40;3.45;;;;;;;;;;5030259;28;20080;-89
2023/09/06 01:16:47;;;;;;;4.97;3.40;;;;;;;;;;5030263;28;20049;-89
2023/09/06 01:19:20;;;;;;;9.05;4.32;;;;;;;;;;5029023;28;20524;-89
2023/09/06 01:25:15;;;;;;;6.22;3.60;;;;;;;;;;5046758;28;20167;-89
2023/09/06 01:27:46;;;;;;;4.53;3.30;;;;;;;;;;5029989;28;20344;-89
2023/09/06 01:30:18;;;;;;;6.00;3.47;;;;;;;;;;5030106;28;20049;-89
2023/09/06 01:33:10;;;;;;;4.90;3.10;;;;;;;;;;5046745;28;20109;-89
2023/09/06 01:35:41;;;;;;;6.35;3.65;;;;;;;;;;5030866;28;20140;-89
2023/09/06 01:38:15;;;;;;;4.20;3.00;;;;;;;;;;5047714;28;20127;-86
2023/09/06 01:40:59;;;;;;;3.93;3.20;;;;;;;;;;5033188;28;20064;-86
2023/09/06 01:43:54;;;;;;;4.93;3.30;;;;;;;;;;5031955;28;20084;-86
2023/09/06 01:46:25;;;;;;;6.10;3.40;;;;;;;;;;5028662;28;20052;-86
2023/09/06 01:48:59;;;;;;;6.13;3.08;;;;;;;;;;5028631;28;20045;-86
2023/09/06 01:51:35;;;;;;;4.50;3.25;;;;;;;;;;5030103;28;20128;-86
2023/09/06 01:54:09;;;;;;;6.05;3.00;;;;;;;;;;5030768;28;20108;-86
2023/09/06 01:56:41;;;;;;;5.05;3.47;;;;;;;;;;5028706;28;20132;-86
2023/09/06 01:59:14;;;;;;;4.75;2.92;;;;;;;;;;5030988;28;20425;-86
2023/09/06 02:01:54;;;;;;;4.45;3.05;;;;;;;;;;5031174;28;20065;-87
2023/09/06 02:04:26;;;;;;;4.72;3.67;;;;;;;;;;5048777;28;20049;-87
2023/09/06 02:07:07;;;;;;;6.07;3.63;;;;;;;;;;5035918;28;20029;-87
2023/09/06 02:09:57;;;;;;;7.72;3.20;;;;;;;;;;5033246;28;20503;-87
2023/09/06 02:12:31;;;;;;;5.70;3.35;;;;;;;;;;5043931;28;20060;-87
2023/09/06 02:15:07;;;;;;;4.43;2.90;;;;;;;;;;5030875;28;20076;-87
2023/09/06 02:17:42;;;;;;;7.10;3.20;;;;;;;;;;5048134;28;20075;-87
2023/09/06 02:20:20;;;;;;;3.72;2.58;;;;;;;;;;5030434;28;20241;-87
2023/09/06 02:23:04;;;;;;;4.18;3.05;;;;;;;;;;5030179;28;20053;-87
2023/09/06 02:25:44;;;;;;;5.55;3.20;;;;;;;;;;5031904;28;20059;-87
2023/09/06 02:28:19;;;;;;;4.30;2.97;;;;;;;;;;5031058;28;20238;-87
2023/09/06 02:30:50;;;;;;;5.45;3.67;;;;;;;;;;5031204;28;20052;-87
2023/09/06 02:33:21;;;;;;;6.45;4.10;;;;;;;;;;5030429;28;20053;-87
2023/09/06 02:35:58;;;;;;;6.95;4.55;;;;;;;;;;5031410;28;20176;-87
2023/09/06 02:38:26;;;;;;;4.55;3.30;;;;;;;;;;5024345;28;20081;-86
2023/09/06 02:41:02;;;;;;;5.15;3.35;;;;;;;;;;5025016;28;20077;-89
2023/09/06 02:43:35;;;;;;;8.47;3.93;;;;;;;;;;5027540;28;20186;-90
2023/09/06 02:46:18;;;;;;;6.57;3.78;;;;;;;;;;5026239;28;20495;-89
2023/09/06 02:48:50;;;;;;;5.82;4.03;;;;;;;;;;5027203;28;20073;-89
2023/09/06 02:51:20;;;;;;;7.40;3.85;;;;;;;;;;5026295;28;20050;-89
2023/09/06 02:53:56;;;;;;;8.82;3.50;;;;;;;;;;5024069;28;20197;-89
2023/09/06 02:56:40;;;;;;;4.50;2.70;;;;;;;;;;5026769;28;20033;-89
2023/09/06 02:59:23;;;;;;;6.70;3.53;;;;;;;;;;5025309;28;20050;-89
2023/09/06 03:01:59;;;;;;;8.40;4.43;;;;;;;;;;5024775;28;20106;-89
2023/09/06 03:04:42;;;;;;;6.60;3.67;;;;;;;;;;5025818;28;20060;-89
2023/09/06 03:07:15;;;;;;;6.85;3.72;;;;;;;;;;5026365;28;20065;-89
2023/09/06 03:09:44;;;;;;;5.28;3.00;;;;;;;;;;5033154;28;20069;-89
2023/09/06 03:12:14;;;;;;;6.85;4.47;;;;;;;;;;5030104;28;20056;-88
2023/09/06 03:14:44;;;;;;;5.57;3.42;;;;;;;;;;5028540;28;20113;-88
2023/09/06 03:17:18;;;;;;;4.50;3.25;;;;;;;;;;5025066;28;20092;-88
2023/09/06 03:19:59;;;;;;;6.43;3.25;;;;;;;;;;5022638;28;20160;-86
2023/09/06 03:22:34;;;;;;;10.15;4.03;;;;;;;;;;5020940;28;20117;-85
2023/09/06 03:25:02;;;;;;;5.03;2.97;;;;;;;;;;5023685;28;20353;-86
2023/09/06 03:27:32;;;;;;;5.90;3.90;;;;;;;;;;5022891;28;20046;-87
2023/09/06 03:30:14;;;;;;;6.68;4.25;;;;;;;;;;5020411;28;20074;-87
2023/09/06 04:13:30;;;;;;;9.07;4.68;;;;;;;;;;5360499;23;20073;-86
2023/09/06 04:16:05;;;;;;;10.15;4.88;;;;;;;;;;5005895;28;20161;-87
2023/09/06 04:18:41;;;;;;;6.97;4.85;;;;;;;;;;5004522;28;20166;-87
2023/09/06 04:24:38;;;;;;;6.97;4.20;;;;;;;;;;5022137;28;20054;-87
2023/09/06 04:27:20;;;;;;;11.80;4.28;;;;;;;;;;5006214;28;20054;-87
2023/09/06 04:29:58;;;;;;;7.80;4.40;;;;;;;;;;5009413;28;20061;-88
2023/09/06 04:32:34;;;;;;;7.90;3.97;;;;;;;;;;5011469;28;20219;-87
2023/09/06 04:35:11;;;;;;;7.50;4.25;;;;;;;;;;5010703;28;20064;-88
2023/09/06 04:37:54;;;;;;;5.45;3.97;;;;;;;;;;5011644;28;20114;-87
2023/09/06 04:40:29;;;;;;;8.18;4.45;;;;;;;;;;5009799;28;20073;-87
2023/09/06 04:42:59;;;;;;;6.07;4.35;;;;;;;;;;5006151;28;20037;-87
2023/09/06 04:45:40;;;;;;;7.32;4.88;;;;;;;;;;4975196;28;20045;-87
2023/09/06 04:48:18;;;;;;;7.28;3.75;;;;;;;;;;5005496;28;20112;-88
2023/09/06 04:50:47;;;;;;;10.00;4.28;;;;;;;;;;5004857;28;20073;-88
2023/09/06 04:53:22;;;;;;;7.95;3.90;;;;;;;;;;5004977;28;20165;-88
2023/09/06 04:55:56;;;;;;;7.27;4.30;;;;;;;;;;5003975;28;20149;-87
2023/09/06 04:58:40;;;;;;;7.75;4.50;;;;;;;;;;5005334;28;20250;-88
2023/09/06 05:04:34;;;;;;;7.15;4.25;;;;;;;;;;5023480;28;20150;-88
2023/09/06 05:07:32;;;;;;;8.30;4.93;;;;;;;;;;5007400;28;20049;-89
2023/09/06 05:10:03;;;;;;;6.53;4.65;;;;;;;;;;5005942;28;20046;-86
2023/09/06 05:12:41;;;;;;;9.15;5.00;;;;;;;;;;5005444;28;20314;-86
2023/09/06 05:15:24;;;;;;;7.85;5.15;;;;;;;;;;5011264;28;20156;-87
2023/09/06 05:21:27;;;;;;;4.90;3.13;;;;;;;;;;5025887;28;20073;-88
2023/09/06 05:24:19;;;;;;;5.25;3.42;;;;;;;;;;5006548;28;20177;-88
2023/09/06 05:30:19;;;;;;;4.93;3.38;;;;;;;;;;5027931;28;20064;-87
2023/09/06 05:32:51;;;;;;;11.30;3.75;;;;;;;;;;5005381;28;20062;-87
2023/09/06 13:42:20;;;;;;;;;;;;;;;;;;;;;
2023/09/06 17:45:46;;;;;;;3.05;1.48;;;;;;;;;;5324253;23;20381;-89
2023/09/06 17:48:20;;;;;;;;;;;;;;;;;;4984071;28;20162;-89
2023/09/06 17:51:26;;;;;;;6.88;1.80;;;;;;;;;;4986226;28;19922;-90
2023/09/06 17:54:09;;;;;;;2.63;1.48;;;;;;;;;;4995133;28;20058;-90
2023/09/06 17:56:51;;;;;;;;;;;;;;;;;;;;;
2023/09/06 17:59:38;;;;;;;6.82;1.20;;;;;;;;;;4922807;29;20056;-88
2023/09/06 18:02:20;;;;;;;3.83;1.33;;;;;;;;;;4977487;28;20454;-89
2023/09/06 18:05:17;;;;;;;4.57;1.23;;;;;;;;;;4998456;28;20587;-89
2023/09/06 18:07:52;;;;;;;3.47;1.38;;;;;;;;;;4983185;28;20112;-90
2023/09/06 18:10:36;;;;;;;2.22;1.50;;;;;;;;;;5001280;28;20059;-89
2023/09/06 18:13:20;;;;;;;4.95;1.38;;;;;;;;;;4986885;28;20042;-89
2023/09/06 18:16:10;;;;;;;2.05;1.25;;;;;;;;;;4969302;28;20034;-89
2023/09/06 18:18:58;;;;;;;2.25;1.48;;;;;;;;;;5007393;28;20556;-89
2023/09/06 18:21:41;;;;;;;2.40;1.50;;;;;;;;;;4988607;28;20054;-89
2023/09/06 18:24:39;;;;;;;2.60;1.20;;;;;;;;;;4993922;28;20050;-90
2023/09/06 18:27:09;;;;;;;2.70;1.30;;;;;;;;;;5001085;28;20339;-90
2023/09/06 18:29:48;;;;;;;3.17;1.50;;;;;;;;;;4999466;28;20196;-89
2023/09/06 18:32:53;;;;;;;3.10;1.35;;;;;;;;;;4981123;28;20309;-88
2023/09/06 18:35:27;;;;;;;2.97;1.58;;;;;;;;;;4996078;28;20097;-90
2023/09/06 18:38:00;;;;;;;2.70;1.57;;;;;;;;;;4980366;28;20124;-89
2023/09/06 18:40:34;;;;;;;7.60;1.95;;;;;;;;;;4980465;28;20484;-90
2023/09/06 18:43:20;;;;;;;1.55;1.42;;;;;;;;;;4981724;28;20105;-90
2023/09/06 18:46:04;;;;;;;2.92;1.83;;;;;;;;;;4977415;28;20074;-89
2023/09/06 18:48:46;;;;;;;4.55;1.98;;;;;;;;;;4979039;28;20054;-89
2023/09/06 18:51:57;;;;;;;3.35;2.30;;;;;;;;;;4980855;28;20046;-90
2023/09/06 18:54:54;;;;;;;4.65;2.42;;;;;;;;;;4981284;28;20054;-90
2023/09/06 18:58:06;;;;;;;6.90;2.72;;;;;;;;;;4952929;29;20052;-89
2023/09/06 19:00:45;;;;;;;5.18;2.80;;;;;;;;;;4978906;28;20043;-90
2023/09/06 19:03:19;;;;;;;6.40;2.55;;;;;;;;;;4983112;28;20086;-90
2023/09/06 19:05:53;;;;;;;6.97;2.20;;;;;;;;;;4981991;28;20051;-90
2023/09/06 19:08:21;;;;;;;5.53;2.63;;;;;;;;;;4986031;28;20065;-89
2023/09/06 19:11:11;;;;;;;6.68;3.08;;;;;;;;;;4964201;28;20190;-89
2023/09/06 19:14:09;;;;;;;;;;;;;;;;;;;;;
2023/09/06 19:16:52;;;;;;;4.75;2.78;;;;;;;;;;4986329;28;20046;-90
2023/09/06 19:19:29;;;;;;;4.00;2.08;;;;;;;;;;4984995;28;20067;-89
2023/09/06 19:22:11;;;;;;;5.03;1.98;;;;;;;;;;4987772;28;20062;-90
2023/09/06 19:25:07;;;;;;;4.63;2.05;;;;;;;;;;4985559;28;20102;-90
2023/09/06 19:31:00;;;;;;;3.15;2.10;;;;;;;;;;4989573;28;20138;-88
2023/09/06 19:34:08;;;;;;;;;;;;;;;;;;;;;
2023/09/06 19:36:57;;;;;;;7.57;1.85;;;;;;;;;;4985967;28;20047;-89
2023/09/06 19:39:34;;;;;;;6.18;2.30;;;;;;;;;;4981220;28;20054;-89
2023/09/06 19:42:44;;;;;;;;;;;;;;;;;;;;;
2023/09/06 19:45:47;;;;;;;5.63;2.00;;;;;;;;;;4990775;28;20493;-89
2023/09/06 19:48:20;;;;;;;3.60;1.60;;;;;;;;;;4987690;28;20058;-89
2023/09/06 19:51:26;;;;;;;4.45;1.77;;;;;;;;;;4986523;28;20149;-90
2023/09/06 19:53:58;;;;;;;2.03;1.75;;;;;;;;;;4984318;28;20102;-90
2023/09/06 19:56:42;;;;;;;2.50;1.60;;;;;;;;;;4988172;28;20057;-90
2023/09/06 19:59:24;;;;;;;;;;;;;;;;;;;;;
2023/09/06 20:01:55;;;;;;;2.28;1.75;;;;;;;;;;5001876;28;20050;-90
2023/09/06 20:04:36;;;;;;;4.45;2.00;;;;;;;;;;4998472;28;20054;-90
2023/09/06 20:07:39;;;;;;;4.05;2.28;;;;;;;;;;4989168;28;20163;-90
2023/09/06 20:10:34;;;;;;;8.45;2.20;;;;;;;;;;4991790;28;20088;-91
2023/09/06 20:13:13;;;;;;;2.95;2.08;;;;;;;;;;5002184;28;20046;-90
2023/09/06 20:15:56;;;;;;;4.78;2.05;;;;;;;;;;4984460;28;20251;-89
2023/09/06 20:18:38;;;;;;;4.85;2.35;;;;;;;;;;5001241;28;20152;-89
2023/09/06 20:21:15;;;;;;;4.97;2.05;;;;;;;;;;4984084;28;20054;-90
2023/09/06 20:23:46;;;;;;;5.07;1.95;;;;;;;;;;4984344;28;20058;-89
2023/09/06 20:26:22;;;;;;;3.83;2.20;;;;;;;;;;4984080;28;20061;-88
2023/09/06 20:29:16;;;;;;;2.75;1.88;;;;;;;;;;4983524;28;20074;-89
2023/09/06 20:32:09;;;;;;;2.83;1.85;;;;;;;;;;4984026;28;20065;-89
2023/09/06 20:34:46;;;;;;;4.47;1.95;;;;;;;;;;5000444;28;20081;-89
2023/09/06 20:37:20;;;;;;;3.97;1.83;;;;;;;;;;5002303;28;20129;-89
2023/09/06 20:40:14;;;;;;;5.63;2.33;;;;;;;;;;4987224;28;20120;-89
2023/09/06 20:42:51;;;;;;;2.88;2.38;;;;;;;;;;4992192;28;20050;-87
2023/09/06 20:45:28;;;;;;;4.32;1.92;;;;;;;;;;5005663;28;20442;-87
2023/09/06 20:48:11;;;;;;;4.00;2.55;;;;;;;;;;5012857;28;20113;-87
2023/09/06 20:50:52;;;;;;;3.88;2.13;;;;;;;;;;4994461;28;20411;-86
2023/09/06 20:53:43;;;;;;;3.03;2.22;;;;;;;;;;4986812;28;20046;-87
2023/09/06 20:56:12;;;;;;;7.97;2.20;;;;;;;;;;4985950;28;20235;-87
2023/09/06 20:58:45;;;;;;;6.30;2.03;;;;;;;;;;4987088;28;20077;-88
2023/09/06 21:01:20;;;;;;;5.55;2.20;;;;;;;;;;4986795;28;20338;-88
2023/09/06 21:04:03;;;;;;;5.57;2.28;;;;;;;;;;4989492;28;20077;-89
2023/09/06 21:06:37;;;;;;;5.07;2.17;;;;;;;;;;4988154;28;20050;-88
2023/09/06 21:09:10;;;;;;;3.45;2.08;;;;;;;;;;4988641;28;20117;-89
2023/09/06 21:11:51;;;;;;;3.03;2.03;;;;;;;;;;4986938;28;20310;-89
2023/09/06 21:14:26;;;;;;;5.85;2.42;;;;;;;;;;5004654;28;20488;-90
2023/09/06 21:16:59;;;;;;;3.97;2.40;;;;;;;;;;4987089;28;20078;-86
2023/09/06 21:19:31;;;;;;;3.92;2.10;;;;;;;;;;4985716;28;20209;-87
2023/09/06 21:22:04;;;;;;;;;;;;;;;;;;4987507;28;20050;-87
2023/09/06 21:24:39;;;;;;;3.65;2.10;;;;;;;;;;4987100;28;19932;-87
2023/09/06 21:27:08;;;;;;;3.17;2.00;;;;;;;;;;4987190;28;20445;-86
2023/09/06 21:29:41;;;;;;;3.13;2.17;;;;;;;;;;4986749;28;20047;-85
2023/09/06 21:32:11;;;;;;;5.30;2.05;;;;;;;;;;4986695;28;20420;-87
2023/09/06 21:34:39;;;;;;;7.15;2.45;;;;;;;;;;4986623;28;20106;-87
2023/09/06 21:37:10;;;;;;;5.50;1.80;;;;;;;;;;4987781;28;20299;-87
2023/09/06 21:39:37;;;;;;;3.15;2.20;;;;;;;;;;4987275;28;20152;-87
2023/09/06 21:42:29;;;;;;;6.00;2.30;;;;;;;;;;4971725;28;20169;-87
2023/09/06 21:45:13;;;;;;;7.28;2.00;;;;;;;;;;4969450;28;20312;-87
2023/09/06 21:47:41;;;;;;;10.40;2.17;;;;;;;;;;4965103;28;20106;-87
2023/09/06 21:50:09;;;;;;;2.35;1.73;;;;;;;;;;4965564;28;20054;-87
2023/09/06 21:52:43;;;;;;;4.55;2.22;;;;;;;;;;4967009;28;20093;-87
2023/09/06 21:55:16;;;;;;;6.20;2.17;;;;;;;;;;4987504;28;20070;-86
2023/09/06 21:58:02;;;;;;;7.88;2.20;;;;;;;;;;4976087;28;20038;-87
2023/09/06 22:00:38;;;;;;;3.15;1.77;;;;;;;;;;4973205;28;20134;-87
2023/09/06 22:03:19;;;;;;;2.78;1.75;;;;;;;;;;4973046;28;20051;-90
2023/09/06 22:05:53;;;;;;;6.05;2.25;;;;;;;;;;4991092;28;20266;-91
2023/09/06 22:08:37;;;;;;;3.72;1.90;;;;;;;;;;4976154;28;20058;-89
2023/09/06 22:11:06;;;;;;;2.80;1.80;;;;;;;;;;4971847;28;20055;-89
2023/09/06 22:13:44;;;;;;;6.75;2.20;;;;;;;;;;4987942;28;20170;-88
2023/09/06 22:16:38;;;;;;;;;;;;;;;;;;;;;
2023/09/06 22:19:25;;;;;;;2.80;2.10;;;;;;;;;;4991905;28;20300;-89
2023/09/06 22:21:58;;;;;;;2.70;1.60;;;;;;;;;;4989866;28;20050;-90
2023/09/06 22:24:34;;;;;;;4.28;2.25;;;;;;;;;;4991939;28;20050;-89
2023/09/06 22:27:09;;;;;;;4.28;2.65;;;;;;;;;;5009107;28;20074;-89
2023/09/06 22:29:44;;;;;;;5.30;2.13;;;;;;;;;;5009096;28;20058;-87
2023/09/06 22:32:25;;;;;;;3.58;2.15;;;;;;;;;;4991299;28;20082;-86
2023/09/06 22:35:09;;;;;;;3.20;2.10;;;;;;;;;;4986177;28;20081;-86
2023/09/06 22:37:56;;;;;;;2.95;1.90;;;;;;;;;;5007108;28;20081;-85
2023/09/06 22:40:40;;;;;;;3.72;2.50;;;;;;;;;;4992454;28;20101;-85
2023/09/06 22:43:28;;;;;;;3.38;2.20;;;;;;;;;;5008807;28;20050;-86
2023/09/06 22:45:57;;;;;;;4.78;2.70;;;;;;;;;;4987817;28;20051;-86
2023/09/06 22:48:28;;;;;;;4.35;2.70;;;;;;;;;;4986967;28;20149;-86
2023/09/06 22:51:20;;;;;;;5.13;2.95;;;;;;;;;;4987555;28;20051;-86
2023/09/06 22:53:51;;;;;;;4.22;2.38;;;;;;;;;;4988072;28;20128;-86
2023/09/06 22:56:34;;;;;;;5.80;2.90;;;;;;;;;;4987774;28;20070;-86
2023/09/06 22:59:03;;;;;;;3.97;2.40;;;;;;;;;;4987235;28;20069;-87
2023/09/06 23:01:35;;;;;;;5.25;2.30;;;;;;;;;;4984241;28;20189;-87
2023/09/06 23:04:04;;;;;;;4.82;2.30;;;;;;;;;;4986471;28;20054;-87
2023/09/06 23:06:45;;;;;;;7.28;2.60;;;;;;;;;;4983100;28;20058;-85
2023/09/06 23:09:18;;;;;;;2.55;1.75;;;;;;;;;;4983328;28;20283;-85
2023/09/06 23:11:56;;;;;;;8.02;2.30;;;;;;;;;;4986481;28;20138;-85
2023/09/06 23:14:26;;;;;;;5.68;2.38;;;;;;;;;;4988174;28;20046;-87
2023/09/06 23:16:58;;;;;;;3.63;2.40;;;;;;;;;;4985948;28;20054;-86
2023/09/06 23:19:32;;;;;;;4.85;2.42;;;;;;;;;;4992231;28;20054;-86
2023/09/06 23:22:02;;;;;;;4.38;2.70;;;;;;;;;;4982342;28;20070;-86
2023/09/06 23:24:37;;;;;;;4.15;2.60;;;;;;;;;;4982759;28;20173;-85
2023/09/06 23:27:07;;;;;;;4.82;2.13;;;;;;;;;;4984323;28;20082;-85
2023/09/06 23:29:44;;;;;;;4.28;3.05;;;;;;;;;;4983807;28;20145;-85
2023/09/06 23:32:19;;;;;;;4.00;2.55;;;;;;;;;;4982890;28;20069;-86
2023/09/06 23:34:52;;;;;;;5.28;2.30;;;;;;;;;;4986774;28;20353;-86
2023/09/06 23:37:34;;;;;;;5.05;2.53;;;;;;;;;;4976172;28;20572;-86
2023/09/06 23:40:21;;;;;;;4.03;2.53;;;;;;;;;;4982862;28;20465;-85
2023/09/06 23:42:58;;;;;;;4.38;2.90;;;;;;;;;;4984901;28;20062;-85
2023/09/06 23:45:26;;;;;;;6.28;2.53;;;;;;;;;;4984312;28;20065;-87
2023/09/06 23:48:00;;;;;;;4.57;2.60;;;;;;;;;;4983871;28;20560;-86
2023/09/06 23:50:36;;;;;;;4.45;2.90;;;;;;;;;;4985655;28;20201;-88
2023/09/06 23:53:12;;;;;;;3.13;2.55;;;;;;;;;;4988366;28;20108;-88
2023/09/06 23:55:44;;;;;;;5.65;3.08;;;;;;;;;;4990334;28;20248;-88
2023/09/06 23:58:16;;;;;;;6.10;2.92;;;;;;;;;;4989676;28;20055;-87
